Marquette, Kansas
Current Conditions -  °F | °C
As of 6:53 PM on Saturday 25 Oct 2014 (Local Time) from KSLN Reporting Station
Clear Clear  
Wind Chill: 74°   Ceiling: Unl
Heat Index: 74°   Visibility: 10mi
Dew Point: 57°   Wind: 9mph
Humidity: 55%   Direction: 160°SSE
Pressure: 29.95"   Gusts: NA
Location:  38.56°N, 97.83°W
Report Text: KSLN 252353Z 16008KT 10SM CLR 23/14 A2995 RMK AO2 SLP134 T02330139 10322 20233 58013
Loading
Personal Weather Stations






























Interactive Weather Map
Tropical Storm Tracking
New forecast layout! Learn more

10-Day Weather Forecast

Advertisements
Track Severe Weather on mobile